This is the latest recevied weather packets stored in our database for station/object KD7YDD. If no packets are shown the sender has not sent any weather packets the latest 10 day(s).
| Time | Temp. | Humidity | Pressure | Rain* | Wind** | Luminosity | Snow |
|---|---|---|---|---|---|---|---|
| 1777893676 | 8.89° C | 88% | 1014.8 hPa | 0 mm | - | 0 W/m² | - |
| 1777890698 | 10° C | 87% | 1014.8 hPa | 0 mm | - | 0 W/m² | - |
| 1777882296 | 11.67° C | 87% | 1015 hPa | 0 mm | - | 0 W/m² | - |
| 1777878076 | 11.67° C | 86% | 1015.1 hPa | 0 mm | - | 0 W/m² | - |
| 1777873278 | 11.67° C | 85% | 1015.3 hPa | 0 mm | - | 0 W/m² | - |
| 1777870876 | 12.22° C | 84% | 1015.2 hPa | 0 mm | - | 0 W/m² | - |
| 1777863676 | 13.33° C | 80% | 1013.7 hPa | 0 mm | - | 0 W/m² | - |
| 1777861876 | 13.89° C | 78% | 1013.6 hPa | 0 mm | - | 5 W/m² | - |
| 1777861300 | 13.89° C | 78% | 1013.5 hPa | 0 mm | - | 5 W/m² | - |
| 1777858877 | 14.44° C | 75% | 1013.6 hPa | 0 mm | - | 32 W/m² | - |
| 1777856476 | 15° C | 75% | 1013.6 hPa | 0 mm | - | 34 W/m² | - |
| 1777849277 | 15.56° C | 73% | 1013.3 hPa | 0 mm | - | 88 W/m² | - |
| 1777847476 | 15.56° C | 73% | 1013.3 hPa | 0 mm | - | 118 W/m² | - |
| 1777843875 | 16.11° C | 73% | 1013.2 hPa | 0 mm | - | 132 W/m² | - |
| 1777833077 | 13.89° C | 77% | 1013.6 hPa | 0 mm | - | 65 W/m² | - |
| 1777830697 | 13.33° C | 79% | 1013.6 hPa | 0 mm | - | 156 W/m² | - |
| 1777827678 | 12.78° C | 81% | 1013.3 hPa | 0 mm | - | 54 W/m² | - |
| 1777827077 | 12.78° C | 81% | 1013.3 hPa | 0 mm | - | 69 W/m² | - |
| 1777825297 | 12.78° C | 83% | 1013.1 hPa | 0 mm | - | 49 W/m² | - |
| 1777822906 | 12.22° C | 86% | 1012.9 hPa | 0 mm | - | 58 W/m² | - |
| 1777815083 | 11.67° C | 88% | 1011.4 hPa | 0 mm | - | 0 W/m² | - |
| 1777813877 | 11.67° C | 88% | 1011.3 hPa | 0 mm | - | 0 W/m² | - |
| 1777811477 | 11.67° C | 88% | 1011.1 hPa | 0 mm | - | 0 W/m² | - |
| 1777809676 | 11.67° C | 88% | 1011.1 hPa | 0 mm | - | 0 W/m² | - |
| 1777807881 | 11.67° C | 88% | 1011.2 hPa | 0 mm | - | 0 W/m² | - |
* Rain latest hour (hover to see other rain measurements)
** Current wind speed in m/s (hover to see current wind gust speed)